sensor_id;sensor_type;location;lat;lon;timestamp;temperature;humidity
68766;DHT22;55756;45.582;11.484;2022-12-07T00:01:12;2.40;90.20
68766;DHT22;55756;45.582;11.484;2022-12-07T00:03:39;2.30;90.20
68766;DHT22;55756;45.582;11.484;2022-12-07T00:06:07;2.30;89.90
68766;DHT22;55756;45.582;11.484;2022-12-07T00:08:33;2.20;90.00
68766;DHT22;55756;45.582;11.484;2022-12-07T00:11:19;2.20;89.90
68766;DHT22;55756;45.582;11.484;2022-12-07T00:13:45;2.10;90.00
68766;DHT22;55756;45.582;11.484;2022-12-07T00:16:16;2.10;90.00
68766;DHT22;55756;45.582;11.484;2022-12-07T00:18:43;2.10;90.00
68766;DHT22;55756;45.582;11.484;2022-12-07T00:21:29;2.00;90.00
68766;DHT22;55756;45.582;11.484;2022-12-07T00:23:56;2.00;90.20
68766;DHT22;55756;45.582;11.484;2022-12-07T00:26:27;2.00;90.00
68766;DHT22;55756;45.582;11.484;2022-12-07T00:28:58;2.00;90.10
68766;DHT22;55756;45.582;11.484;2022-12-07T00:31:27;2.00;90.00
68766;DHT22;55756;45.582;11.484;2022-12-07T00:33:53;2.00;89.70
68766;DHT22;55756;45.582;11.484;2022-12-07T00:36:22;2.00;89.90
68766;DHT22;55756;45.582;11.484;2022-12-07T00:38:48;2.00;90.00
68766;DHT22;55756;45.582;11.484;2022-12-07T00:41:19;1.90;90.00
68766;DHT22;55756;45.582;11.484;2022-12-07T00:43:46;1.90;90.00
68766;DHT22;55756;45.582;11.484;2022-12-07T00:46:13;1.90;89.80
68766;DHT22;55756;45.582;11.484;2022-12-07T00:48:40;2.00;89.80
68766;DHT22;55756;45.582;11.484;2022-12-07T00:51:06;1.90;89.90
68766;DHT22;55756;45.582;11.484;2022-12-07T00:53:34;1.90;89.80
68766;DHT22;55756;45.582;11.484;2022-12-07T00:56:08;1.90;89.90
68766;DHT22;55756;45.582;11.484;2022-12-07T00:58:34;1.90;90.00
68766;DHT22;55756;45.582;11.484;2022-12-07T01:01:02;2.00;89.90
68766;DHT22;55756;45.582;11.484;2022-12-07T01:03:28;2.00;90.00
68766;DHT22;55756;45.582;11.484;2022-12-07T01:05:55;1.90;90.10
68766;DHT22;55756;45.582;11.484;2022-12-07T01:08:22;1.90;89.90
68766;DHT22;55756;45.582;11.484;2022-12-07T01:10:48;1.90;89.80
68766;DHT22;55756;45.582;11.484;2022-12-07T01:13:15;1.90;90.10
68766;DHT22;55756;45.582;11.484;2022-12-07T01:15:42;1.90;90.00
68766;DHT22;55756;45.582;11.484;2022-12-07T01:18:09;1.90;90.00
68766;DHT22;55756;45.582;11.484;2022-12-07T01:20:35;1.90;90.30
68766;DHT22;55756;45.582;11.484;2022-12-07T01:23:01;1.90;90.00
68766;DHT22;55756;45.582;11.484;2022-12-07T01:25:27;1.90;90.00
68766;DHT22;55756;45.582;11.484;2022-12-07T01:27:53;1.80;89.90
68766;DHT22;55756;45.582;11.484;2022-12-07T01:30:19;1.80;89.80
68766;DHT22;55756;45.582;11.484;2022-12-07T01:32:44;1.80;89.70
68766;DHT22;55756;45.582;11.484;2022-12-07T01:35:10;1.70;89.60
68766;DHT22;55756;45.582;11.484;2022-12-07T01:37:37;1.60;89.60
68766;DHT22;55756;45.582;11.484;2022-12-07T01:40:06;1.60;89.60
68766;DHT22;55756;45.582;11.484;2022-12-07T01:42:33;1.60;89.70
68766;DHT22;55756;45.582;11.484;2022-12-07T01:47:46;1.70;89.80
68766;DHT22;55756;45.582;11.484;2022-12-07T01:50:13;1.70;89.90
68766;DHT22;55756;45.582;11.484;2022-12-07T01:52:40;1.70;89.80
68766;DHT22;55756;45.582;11.484;2022-12-07T01:55:10;1.80;89.70
68766;DHT22;55756;45.582;11.484;2022-12-07T01:57:42;1.80;89.80
68766;DHT22;55756;45.582;11.484;2022-12-07T02:00:09;1.80;89.70
68766;DHT22;55756;45.582;11.484;2022-12-07T02:02:51;1.70;89.70
68766;DHT22;55756;45.582;11.484;2022-12-07T02:05:19;1.70;90.00
68766;DHT22;55756;45.582;11.484;2022-12-07T02:07:47;1.70;90.10
68766;DHT22;55756;45.582;11.484;2022-12-07T02:12:39;1.60;90.00
68766;DHT22;55756;45.582;11.484;2022-12-07T02:15:06;1.70;90.00
68766;DHT22;55756;45.582;11.484;2022-12-07T02:20:31;1.60;89.90
68766;DHT22;55756;45.582;11.484;2022-12-07T02:26:02;1.60;89.70
68766;DHT22;55756;45.582;11.484;2022-12-07T02:31:31;1.60;89.70
68766;DHT22;55756;45.582;11.484;2022-12-07T02:34:09;1.50;89.60
68766;DHT22;55756;45.582;11.484;2022-12-07T02:36:45;1.50;89.70
68766;DHT22;55756;45.582;11.484;2022-12-07T02:39:17;1.40;89.80
68766;DHT22;55756;45.582;11.484;2022-12-07T02:41:54;1.30;89.70
68766;DHT22;55756;45.582;11.484;2022-12-07T02:44:24;1.30;89.90
68766;DHT22;55756;45.582;11.484;2022-12-07T02:47:03;1.30;90.00
68766;DHT22;55756;45.582;11.484;2022-12-07T02:49:31;1.30;89.90
68766;DHT22;55756;45.582;11.484;2022-12-07T02:51:57;1.30;90.00
68766;DHT22;55756;45.582;11.484;2022-12-07T02:54:23;1.30;89.90
68766;DHT22;55756;45.582;11.484;2022-12-07T03:00:51;1.20;90.20
68766;DHT22;55756;45.582;11.484;2022-12-07T03:03:17;1.20;90.20
68766;DHT22;55756;45.582;11.484;2022-12-07T03:05:54;1.20;90.20
68766;DHT22;55756;45.582;11.484;2022-12-07T03:09:11;1.20;90.50
68766;DHT22;55756;45.582;11.484;2022-12-07T03:11:24;1.20;90.40
68766;DHT22;55756;45.582;11.484;2022-12-07T03:14:28;1.20;90.30
68766;DHT22;55756;45.582;11.484;2022-12-07T03:17:12;1.30;90.40
68766;DHT22;55756;45.582;11.484;2022-12-07T03:19:40;1.30;90.40
68766;DHT22;55756;45.582;11.484;2022-12-07T03:22:10;1.30;90.40
68766;DHT22;55756;45.582;11.484;2022-12-07T03:24:55;1.30;90.20
68766;DHT22;55756;45.582;11.484;2022-12-07T03:27:30;1.30;90.30
68766;DHT22;55756;45.582;11.484;2022-12-07T03:30:12;1.30;90.10
68766;DHT22;55756;45.582;11.484;2022-12-07T03:33:05;1.30;90.20
68766;DHT22;55756;45.582;11.484;2022-12-07T03:35:42;1.30;90.10
68766;DHT22;55756;45.582;11.484;2022-12-07T03:38:32;1.20;90.20
68766;DHT22;55756;45.582;11.484;2022-12-07T03:41:04;1.20;90.10
68766;DHT22;55756;45.582;11.484;2022-12-07T03:43:32;1.20;90.20
68766;DHT22;55756;45.582;11.484;2022-12-07T03:56:56;0.90;90.70
68766;DHT22;55756;45.582;11.484;2022-12-07T03:59:23;0.80;91.10
68766;DHT22;55756;45.582;11.484;2022-12-07T04:01:57;0.80;91.00
68766;DHT22;55756;45.582;11.484;2022-12-07T04:04:27;0.90;91.00
68766;DHT22;55756;45.582;11.484;2022-12-07T04:06:53;0.80;91.30
68766;DHT22;55756;45.582;11.484;2022-12-07T04:09:20;0.90;91.40
68766;DHT22;55756;45.582;11.484;2022-12-07T04:11:45;0.90;91.40
68766;DHT22;55756;45.582;11.484;2022-12-07T04:14:11;1.00;91.20
68766;DHT22;55756;45.582;11.484;2022-12-07T04:16:45;1.00;91.20
68766;DHT22;55756;45.582;11.484;2022-12-07T04:19:11;1.00;91.00
68766;DHT22;55756;45.582;11.484;2022-12-07T04:21:37;1.00;91.00
68766;DHT22;55756;45.582;11.484;2022-12-07T04:24:04;1.00;90.80
68766;DHT22;55756;45.582;11.484;2022-12-07T04:26:30;1.00;91.00
68766;DHT22;55756;45.582;11.484;2022-12-07T04:28:55;0.90;90.90
68766;DHT22;55756;45.582;11.484;2022-12-07T04:31:21;0.90;90.80
68766;DHT22;55756;45.582;11.484;2022-12-07T04:33:47;0.90;90.90
68766;DHT22;55756;45.582;11.484;2022-12-07T04:36:13;0.90;90.80
68766;DHT22;55756;45.582;11.484;2022-12-07T04:38:39;0.90;90.80
68766;DHT22;55756;45.582;11.484;2022-12-07T04:41:06;0.80;90.80
68766;DHT22;55756;45.582;11.484;2022-12-07T04:43:33;0.90;90.40
68766;DHT22;55756;45.582;11.484;2022-12-07T04:45:59;0.80;90.70
68766;DHT22;55756;45.582;11.484;2022-12-07T04:48:25;0.80;90.30
68766;DHT22;55756;45.582;11.484;2022-12-07T04:50:51;0.80;90.60
68766;DHT22;55756;45.582;11.484;2022-12-07T04:53:17;0.80;90.40
68766;DHT22;55756;45.582;11.484;2022-12-07T04:55:44;0.80;90.40
68766;DHT22;55756;45.582;11.484;2022-12-07T04:58:09;0.80;90.30
68766;DHT22;55756;45.582;11.484;2022-12-07T05:00:35;0.70;90.50
68766;DHT22;55756;45.582;11.484;2022-12-07T05:03:01;0.80;90.40
68766;DHT22;55756;45.582;11.484;2022-12-07T05:05:27;0.80;90.20
68766;DHT22;55756;45.582;11.484;2022-12-07T05:07:53;0.80;90.30
68766;DHT22;55756;45.582;11.484;2022-12-07T05:10:19;0.80;90.40
68766;DHT22;55756;45.582;11.484;2022-12-07T05:12:45;0.90;90.10
68766;DHT22;55756;45.582;11.484;2022-12-07T05:15:12;0.90;90.20
68766;DHT22;55756;45.582;11.484;2022-12-07T05:17:37;0.80;90.30
68766;DHT22;55756;45.582;11.484;2022-12-07T05:20:04;0.90;90.40
68766;DHT22;55756;45.582;11.484;2022-12-07T05:22:30;0.90;90.10
68766;DHT22;55756;45.582;11.484;2022-12-07T05:24:56;0.90;90.50
68766;DHT22;55756;45.582;11.484;2022-12-07T05:27:22;0.90;90.30
68766;DHT22;55756;45.582;11.484;2022-12-07T05:29:49;0.80;90.30
68766;DHT22;55756;45.582;11.484;2022-12-07T05:32:15;0.80;90.30
68766;DHT22;55756;45.582;11.484;2022-12-07T05:34:41;0.80;90.30
68766;DHT22;55756;45.582;11.484;2022-12-07T05:37:07;0.80;90.30
68766;DHT22;55756;45.582;11.484;2022-12-07T05:39:33;0.80;90.30
68766;DHT22;55756;45.582;11.484;2022-12-07T05:41:59;0.70;90.00
68766;DHT22;55756;45.582;11.484;2022-12-07T05:44:45;0.60;90.40
68766;DHT22;55756;45.582;11.484;2022-12-07T05:47:12;0.60;90.70
68766;DHT22;55756;45.582;11.484;2022-12-07T05:49:38;0.60;90.90
68766;DHT22;55756;45.582;11.484;2022-12-07T05:52:04;0.70;90.80
68766;DHT22;55756;45.582;11.484;2022-12-07T05:54:30;0.70;90.80
68766;DHT22;55756;45.582;11.484;2022-12-07T05:56:56;0.80;90.80
68766;DHT22;55756;45.582;11.484;2022-12-07T05:59:22;0.70;90.90
68766;DHT22;55756;45.582;11.484;2022-12-07T06:02:01;0.70;90.70
68766;DHT22;55756;45.582;11.484;2022-12-07T06:04:30;0.80;90.80
68766;DHT22;55756;45.582;11.484;2022-12-07T06:06:57;0.80;90.50
68766;DHT22;55756;45.582;11.484;2022-12-07T06:09:24;0.80;90.40
68766;DHT22;55756;45.582;11.484;2022-12-07T06:11:50;0.80;90.30
68766;DHT22;55756;45.582;11.484;2022-12-07T06:14:35;0.80;90.20
68766;DHT22;55756;45.582;11.484;2022-12-07T06:17:01;0.80;90.20
68766;DHT22;55756;45.582;11.484;2022-12-07T06:19:27;0.80;90.00
68766;DHT22;55756;45.582;11.484;2022-12-07T06:21:54;0.80;90.20
68766;DHT22;55756;45.582;11.484;2022-12-07T06:24:20;0.90;90.10
68766;DHT22;55756;45.582;11.484;2022-12-07T06:26:46;0.90;90.10
68766;DHT22;55756;45.582;11.484;2022-12-07T06:29:13;0.90;90.10
68766;DHT22;55756;45.582;11.484;2022-12-07T06:31:39;0.90;90.00
68766;DHT22;55756;45.582;11.484;2022-12-07T06:34:14;0.90;90.20
68766;DHT22;55756;45.582;11.484;2022-12-07T06:36:40;1.00;90.20
68766;DHT22;55756;45.582;11.484;2022-12-07T06:39:06;1.00;90.00
68766;DHT22;55756;45.582;11.484;2022-12-07T06:41:38;1.00;90.00
68766;DHT22;55756;45.582;11.484;2022-12-07T06:44:05;1.00;90.30
68766;DHT22;55756;45.582;11.484;2022-12-07T06:46:32;1.00;90.30
68766;DHT22;55756;45.582;11.484;2022-12-07T06:48:57;1.10;90.00
68766;DHT22;55756;45.582;11.484;2022-12-07T06:51:24;1.10;89.90
68766;DHT22;55756;45.582;11.484;2022-12-07T06:53:50;1.20;90.00
68766;DHT22;55756;45.582;11.484;2022-12-07T06:56:16;1.20;90.00
68766;DHT22;55756;45.582;11.484;2022-12-07T06:58:41;1.20;90.20
68766;DHT22;55756;45.582;11.484;2022-12-07T07:01:11;1.20;90.60
68766;DHT22;55756;45.582;11.484;2022-12-07T07:03:38;1.20;90.70
68766;DHT22;55756;45.582;11.484;2022-12-07T07:06:04;1.30;90.30
68766;DHT22;55756;45.582;11.484;2022-12-07T07:08:30;1.30;90.60
68766;DHT22;55756;45.582;11.484;2022-12-07T07:10:56;1.40;90.60
68766;DHT22;55756;45.582;11.484;2022-12-07T07:13:22;1.50;90.30
68766;DHT22;55756;45.582;11.484;2022-12-07T07:15:48;1.50;90.00
68766;DHT22;55756;45.582;11.484;2022-12-07T07:18:14;1.50;89.90
68766;DHT22;55756;45.582;11.484;2022-12-07T07:20:40;1.50;89.80
68766;DHT22;55756;45.582;11.484;2022-12-07T07:23:06;1.50;89.80
68766;DHT22;55756;45.582;11.484;2022-12-07T07:25:32;1.60;89.60
68766;DHT22;55756;45.582;11.484;2022-12-07T07:27:58;1.70;89.50
68766;DHT22;55756;45.582;11.484;2022-12-07T07:30:25;1.70;89.50
68766;DHT22;55756;45.582;11.484;2022-12-07T07:32:50;1.80;89.50
68766;DHT22;55756;45.582;11.484;2022-12-07T07:35:17;2.00;89.50
68766;DHT22;55756;45.582;11.484;2022-12-07T07:37:43;2.00;89.40
68766;DHT22;55756;45.582;11.484;2022-12-07T07:40:09;2.10;89.50
68766;DHT22;55756;45.582;11.484;2022-12-07T07:42:35;2.20;89.30
68766;DHT22;55756;45.582;11.484;2022-12-07T07:45:01;2.40;89.00
68766;DHT22;55756;45.582;11.484;2022-12-07T07:47:27;2.50;88.70
68766;DHT22;55756;45.582;11.484;2022-12-07T07:49:54;2.60;88.50
68766;DHT22;55756;45.582;11.484;2022-12-07T07:52:20;2.80;88.30
68766;DHT22;55756;45.582;11.484;2022-12-07T07:54:46;3.10;87.80
68766;DHT22;55756;45.582;11.484;2022-12-07T07:57:11;3.50;87.50
68766;DHT22;55756;45.582;11.484;2022-12-07T07:59:37;3.90;86.80
68766;DHT22;55756;45.582;11.484;2022-12-07T08:02:03;4.50;85.40
68766;DHT22;55756;45.582;11.484;2022-12-07T08:04:29;5.10;83.80
68766;DHT22;55756;45.582;11.484;2022-12-07T08:06:54;5.60;82.10
68766;DHT22;55756;45.582;11.484;2022-12-07T08:09:20;6.00;80.50
68766;DHT22;55756;45.582;11.484;2022-12-07T08:11:46;6.30;78.40
68766;DHT22;55756;45.582;11.484;2022-12-07T08:14:13;6.60;76.90
68766;DHT22;55756;45.582;11.484;2022-12-07T08:16:39;6.80;75.70
68766;DHT22;55756;45.582;11.484;2022-12-07T08:19:05;7.00;74.70
68766;DHT22;55756;45.582;11.484;2022-12-07T08:21:31;7.40;73.70
68766;DHT22;55756;45.582;11.484;2022-12-07T08:23:57;7.80;71.40
68766;DHT22;55756;45.582;11.484;2022-12-07T08:26:23;8.00;70.40
68766;DHT22;55756;45.582;11.484;2022-12-07T08:28:49;8.00;69.50
68766;DHT22;55756;45.582;11.484;2022-12-07T08:31:17;7.70;69.60
68766;DHT22;55756;45.582;11.484;2022-12-07T08:33:46;7.60;70.10
68766;DHT22;55756;45.582;11.484;2022-12-07T08:36:12;7.40;70.90
68766;DHT22;55756;45.582;11.484;2022-12-07T08:38:39;7.20;71.60
68766;DHT22;55756;45.582;11.484;2022-12-07T08:41:06;7.10;72.50
68766;DHT22;55756;45.582;11.484;2022-12-07T08:43:32;7.00;72.90
68766;DHT22;55756;45.582;11.484;2022-12-07T08:51:31;6.80;74.50
68766;DHT22;55756;45.582;11.484;2022-12-07T08:53:58;6.90;74.50
68766;DHT22;55756;45.582;11.484;2022-12-07T08:56:26;6.80;74.70
68766;DHT22;55756;45.582;11.484;2022-12-07T08:58:53;6.80;75.30
68766;DHT22;55756;45.582;11.484;2022-12-07T09:01:18;6.80;75.50
68766;DHT22;55756;45.582;11.484;2022-12-07T09:03:44;6.90;75.70
68766;DHT22;55756;45.582;11.484;2022-12-07T09:06:10;6.90;75.30
68766;DHT22;55756;45.582;11.484;2022-12-07T09:08:40;6.90;75.80
68766;DHT22;55756;45.582;11.484;2022-12-07T09:11:07;7.00;75.90
68766;DHT22;55756;45.582;11.484;2022-12-07T09:13:33;6.90;76.30
68766;DHT22;55756;45.582;11.484;2022-12-07T09:15:59;6.90;76.30
68766;DHT22;55756;45.582;11.484;2022-12-07T09:18:25;6.80;76.70
68766;DHT22;55756;45.582;11.484;2022-12-07T09:20:51;6.80;76.60
68766;DHT22;55756;45.582;11.484;2022-12-07T09:23:17;6.80;77.20
68766;DHT22;55756;45.582;11.484;2022-12-07T09:25:43;6.80;76.90
68766;DHT22;55756;45.582;11.484;2022-12-07T09:28:08;6.90;77.30
68766;DHT22;55756;45.582;11.484;2022-12-07T09:30:35;7.00;77.20
68766;DHT22;55756;45.582;11.484;2022-12-07T09:33:01;7.20;77.40
68766;DHT22;55756;45.582;11.484;2022-12-07T09:35:27;7.30;77.30
68766;DHT22;55756;45.582;11.484;2022-12-07T09:37:53;7.30;77.30
68766;DHT22;55756;45.582;11.484;2022-12-07T09:40:21;7.40;77.30
68766;DHT22;55756;45.582;11.484;2022-12-07T09:42:51;7.50;77.20
68766;DHT22;55756;45.582;11.484;2022-12-07T09:45:33;7.50;76.50
68766;DHT22;55756;45.582;11.484;2022-12-07T09:48:00;7.60;76.80
68766;DHT22;55756;45.582;11.484;2022-12-07T09:50:28;7.70;76.70
68766;DHT22;55756;45.582;11.484;2022-12-07T09:53:00;7.70;76.40
68766;DHT22;55756;45.582;11.484;2022-12-07T09:55:29;7.80;76.70
68766;DHT22;55756;45.582;11.484;2022-12-07T09:57:57;7.80;76.30
68766;DHT22;55756;45.582;11.484;2022-12-07T10:00:24;7.90;75.80
68766;DHT22;55756;45.582;11.484;2022-12-07T10:05:28;7.90;75.50
68766;DHT22;55756;45.582;11.484;2022-12-07T10:07:55;7.90;75.10
68766;DHT22;55756;45.582;11.484;2022-12-07T10:10:40;7.90;74.90
68766;DHT22;55756;45.582;11.484;2022-12-07T10:13:12;8.00;74.60
68766;DHT22;55756;45.582;11.484;2022-12-07T10:15:54;8.00;75.30
68766;DHT22;55756;45.582;11.484;2022-12-07T10:18:40;8.00;75.00
68766;DHT22;55756;45.582;11.484;2022-12-07T10:21:15;8.10;74.80
68766;DHT22;55756;45.582;11.484;2022-12-07T10:26:50;8.10;74.80
68766;DHT22;55756;45.582;11.484;2022-12-07T10:29:28;8.00;74.80
68766;DHT22;55756;45.582;11.484;2022-12-07T10:34:32;7.90;75.00
68766;DHT22;55756;45.582;11.484;2022-12-07T10:39:49;8.00;74.70
68766;DHT22;55756;45.582;11.484;2022-12-07T10:42:26;8.00;75.50
68766;DHT22;55756;45.582;11.484;2022-12-07T10:45:17;7.90;75.00
68766;DHT22;55756;45.582;11.484;2022-12-07T10:47:55;8.00;75.20
68766;DHT22;55756;45.582;11.484;2022-12-07T10:59:03;8.30;74.90
68766;DHT22;55756;45.582;11.484;2022-12-07T11:04:24;8.60;74.40
68766;DHT22;55756;45.582;11.484;2022-12-07T11:15:21;8.60;74.90
68766;DHT22;55756;45.582;11.484;2022-12-07T11:23:21;8.80;74.70
68766;DHT22;55756;45.582;11.484;2022-12-07T11:28:31;8.80;74.10
68766;DHT22;55756;45.582;11.484;2022-12-07T11:34:30;9.00;73.60
68766;DHT22;55756;45.582;11.484;2022-12-07T11:37:02;9.00;73.40
68766;DHT22;55756;45.582;11.484;2022-12-07T11:39:33;9.10;72.80
68766;DHT22;55756;45.582;11.484;2022-12-07T11:42:10;9.10;73.10
68766;DHT22;55756;45.582;11.484;2022-12-07T12:03:51;9.40;72.40
68766;DHT22;55756;45.582;11.484;2022-12-07T12:06:17;9.40;70.90
68766;DHT22;55756;45.582;11.484;2022-12-07T12:19:41;9.50;67.90
68766;DHT22;55756;45.582;11.484;2022-12-07T12:22:19;9.60;67.90
68766;DHT22;55756;45.582;11.484;2022-12-07T12:24:52;9.50;67.60
68766;DHT22;55756;45.582;11.484;2022-12-07T12:27:27;9.50;67.60
68766;DHT22;55756;45.582;11.484;2022-12-07T12:29:58;9.50;67.80
68766;DHT22;55756;45.582;11.484;2022-12-07T12:32:51;9.50;68.20
68766;DHT22;55756;45.582;11.484;2022-12-07T12:35:32;9.50;67.90
68766;DHT22;55756;45.582;11.484;2022-12-07T12:40:46;9.60;68.00
68766;DHT22;55756;45.582;11.484;2022-12-07T12:43:47;9.60;67.40
68766;DHT22;55756;45.582;11.484;2022-12-07T12:51:48;9.40;65.60
68766;DHT22;55756;45.582;11.484;2022-12-07T12:57:21;9.50;65.10
68766;DHT22;55756;45.582;11.484;2022-12-07T13:05:02;9.60;64.70
68766;DHT22;55756;45.582;11.484;2022-12-07T13:12:57;9.50;66.50
68766;DHT22;55756;45.582;11.484;2022-12-07T13:15:39;9.60;67.10
68766;DHT22;55756;45.582;11.484;2022-12-07T13:23:38;9.70;68.60
68766;DHT22;55756;45.582;11.484;2022-12-07T13:26:12;9.60;68.20
68766;DHT22;55756;45.582;11.484;2022-12-07T13:28:43;9.70;68.10
68766;DHT22;55756;45.582;11.484;2022-12-07T13:33:59;9.60;68.00
68766;DHT22;55756;45.582;11.484;2022-12-07T13:36:27;9.60;68.20
68766;DHT22;55756;45.582;11.484;2022-12-07T13:39:11;9.60;67.90
68766;DHT22;55756;45.582;11.484;2022-12-07T13:41:43;9.60;67.90
68766;DHT22;55756;45.582;11.484;2022-12-07T13:44:16;9.50;67.90
68766;DHT22;55756;45.582;11.484;2022-12-07T13:49:31;9.40;67.00
68766;DHT22;55756;45.582;11.484;2022-12-07T13:55:11;9.40;68.10
68766;DHT22;55756;45.582;11.484;2022-12-07T13:57:39;9.30;67.90
68766;DHT22;55756;45.582;11.484;2022-12-07T14:00:24;9.30;68.00
68766;DHT22;55756;45.582;11.484;2022-12-07T14:03:04;9.30;68.30
68766;DHT22;55756;45.582;11.484;2022-12-07T14:05:45;9.30;68.80
68766;DHT22;55756;45.582;11.484;2022-12-07T14:10:38;9.30;69.10
68766;DHT22;55756;45.582;11.484;2022-12-07T14:13:34;9.20;69.50
68766;DHT22;55756;45.582;11.484;2022-12-07T14:16:28;9.10;70.00
68766;DHT22;55756;45.582;11.484;2022-12-07T14:18:54;9.10;70.60
68766;DHT22;55756;45.582;11.484;2022-12-07T14:21:23;9.00;70.90
68766;DHT22;55756;45.582;11.484;2022-12-07T14:24:09;9.00;71.20
68766;DHT22;55756;45.582;11.484;2022-12-07T14:26:37;9.00;71.20
68766;DHT22;55756;45.582;11.484;2022-12-07T14:29:27;8.90;71.40
68766;DHT22;55756;45.582;11.484;2022-12-07T14:31:56;8.80;71.60
68766;DHT22;55756;45.582;11.484;2022-12-07T14:34:22;8.80;71.60
68766;DHT22;55756;45.582;11.484;2022-12-07T14:36:49;8.80;71.80
68766;DHT22;55756;45.582;11.484;2022-12-07T14:39:15;8.80;72.00
68766;DHT22;55756;45.582;11.484;2022-12-07T14:41:41;8.70;72.40
68766;DHT22;55756;45.582;11.484;2022-12-07T14:44:16;8.60;72.70
68766;DHT22;55756;45.582;11.484;2022-12-07T14:46:42;8.60;73.10
68766;DHT22;55756;45.582;11.484;2022-12-07T14:49:08;8.50;73.30
68766;DHT22;55756;45.582;11.484;2022-12-07T14:51:36;8.50;73.50
68766;DHT22;55756;45.582;11.484;2022-12-07T14:54:05;8.50;73.80
68766;DHT22;55756;45.582;11.484;2022-12-07T14:56:31;8.40;74.10
68766;DHT22;55756;45.582;11.484;2022-12-07T14:58:57;8.40;74.50
68766;DHT22;55756;45.582;11.484;2022-12-07T15:01:23;8.40;74.80
68766;DHT22;55756;45.582;11.484;2022-12-07T15:03:48;8.30;75.00
68766;DHT22;55756;45.582;11.484;2022-12-07T15:06:16;8.30;75.30
68766;DHT22;55756;45.582;11.484;2022-12-07T15:08:43;8.20;75.30
68766;DHT22;55756;45.582;11.484;2022-12-07T15:11:17;8.20;75.50
68766;DHT22;55756;45.582;11.484;2022-12-07T15:13:43;8.10;75.80
68766;DHT22;55756;45.582;11.484;2022-12-07T15:16:28;8.10;75.90
68766;DHT22;55756;45.582;11.484;2022-12-07T15:18:54;8.00;76.30
68766;DHT22;55756;45.582;11.484;2022-12-07T15:21:20;7.90;76.50
68766;DHT22;55756;45.582;11.484;2022-12-07T15:23:47;7.90;77.10
68766;DHT22;55756;45.582;11.484;2022-12-07T15:26:12;7.80;77.60
68766;DHT22;55756;45.582;11.484;2022-12-07T15:28:39;7.70;78.30
68766;DHT22;55756;45.582;11.484;2022-12-07T15:31:15;7.70;78.40
68766;DHT22;55756;45.582;11.484;2022-12-07T15:33:42;7.60;78.70
68766;DHT22;55756;45.582;11.484;2022-12-07T15:36:08;7.50;78.90
68766;DHT22;55756;45.582;11.484;2022-12-07T15:38:35;7.40;79.10
68766;DHT22;55756;45.582;11.484;2022-12-07T15:41:00;7.40;79.50
68766;DHT22;55756;45.582;11.484;2022-12-07T15:43:26;7.30;79.50
68766;DHT22;55756;45.582;11.484;2022-12-07T15:46:11;7.20;80.00
68766;DHT22;55756;45.582;11.484;2022-12-07T15:48:37;7.20;80.40
68766;DHT22;55756;45.582;11.484;2022-12-07T15:51:07;7.10;80.60
68766;DHT22;55756;45.582;11.484;2022-12-07T15:53:34;7.00;80.80
68766;DHT22;55756;45.582;11.484;2022-12-07T15:56:00;7.00;81.00
68766;DHT22;55756;45.582;11.484;2022-12-07T15:58:26;6.90;81.10
68766;DHT22;55756;45.582;11.484;2022-12-07T16:00:52;6.80;81.10
68766;DHT22;55756;45.582;11.484;2022-12-07T16:03:18;6.80;81.10
68766;DHT22;55756;45.582;11.484;2022-12-07T16:05:50;6.70;81.30
68766;DHT22;55756;45.582;11.484;2022-12-07T16:08:16;6.70;81.60
68766;DHT22;55756;45.582;11.484;2022-12-07T16:10:42;6.70;81.90
68766;DHT22;55756;45.582;11.484;2022-12-07T16:13:12;6.60;81.90
68766;DHT22;55756;45.582;11.484;2022-12-07T16:15:42;6.50;82.20
68766;DHT22;55756;45.582;11.484;2022-12-07T16:18:08;6.50;82.70
68766;DHT22;55756;45.582;11.484;2022-12-07T16:20:34;6.50;82.80
68766;DHT22;55756;45.582;11.484;2022-12-07T16:23:00;6.40;82.80
68766;DHT22;55756;45.582;11.484;2022-12-07T16:25:26;6.40;82.60
68766;DHT22;55756;45.582;11.484;2022-12-07T16:27:52;6.40;82.80
68766;DHT22;55756;45.582;11.484;2022-12-07T16:30:18;6.30;82.80
68766;DHT22;55756;45.582;11.484;2022-12-07T16:32:44;6.20;83.10
68766;DHT22;55756;45.582;11.484;2022-12-07T16:35:11;6.20;83.30
68766;DHT22;55756;45.582;11.484;2022-12-07T16:37:37;6.10;83.20
68766;DHT22;55756;45.582;11.484;2022-12-07T16:40:04;6.00;83.30
68766;DHT22;55756;45.582;11.484;2022-12-07T16:42:34;6.00;83.60
68766;DHT22;55756;45.582;11.484;2022-12-07T16:45:00;5.90;83.60
68766;DHT22;55756;45.582;11.484;2022-12-07T16:47:26;5.90;83.80
68766;DHT22;55756;45.582;11.484;2022-12-07T16:49:52;5.90;83.90
68766;DHT22;55756;45.582;11.484;2022-12-07T16:52:19;5.80;84.00
68766;DHT22;55756;45.582;11.484;2022-12-07T16:54:46;5.70;84.60
68766;DHT22;55756;45.582;11.484;2022-12-07T16:57:12;5.70;84.90
68766;DHT22;55756;45.582;11.484;2022-12-07T16:59:38;5.60;85.00
68766;DHT22;55756;45.582;11.484;2022-12-07T17:02:04;5.60;84.90
68766;DHT22;55756;45.582;11.484;2022-12-07T17:04:33;5.50;84.90
68766;DHT22;55756;45.582;11.484;2022-12-07T17:06:58;5.50;84.80
68766;DHT22;55756;45.582;11.484;2022-12-07T17:09:24;5.50;84.70
68766;DHT22;55756;45.582;11.484;2022-12-07T17:11:51;5.50;84.80
68766;DHT22;55756;45.582;11.484;2022-12-07T17:14:17;5.40;84.80
68766;DHT22;55756;45.582;11.484;2022-12-07T17:17:02;5.40;84.80
68766;DHT22;55756;45.582;11.484;2022-12-07T17:19:28;5.40;84.70
68766;DHT22;55756;45.582;11.484;2022-12-07T17:21:54;5.30;84.80
68766;DHT22;55756;45.582;11.484;2022-12-07T17:24:19;5.20;84.80
68766;DHT22;55756;45.582;11.484;2022-12-07T17:26:46;5.20;84.80
68766;DHT22;55756;45.582;11.484;2022-12-07T17:29:14;5.20;85.00
68766;DHT22;55756;45.582;11.484;2022-12-07T17:31:40;5.20;84.90
68766;DHT22;55756;45.582;11.484;2022-12-07T17:34:13;5.20;85.10
68766;DHT22;55756;45.582;11.484;2022-12-07T17:36:40;5.20;85.10
68766;DHT22;55756;45.582;11.484;2022-12-07T17:39:09;5.20;84.90
68766;DHT22;55756;45.582;11.484;2022-12-07T17:41:37;5.10;85.10
68766;DHT22;55756;45.582;11.484;2022-12-07T17:44:21;5.10;85.00
68766;DHT22;55756;45.582;11.484;2022-12-07T17:46:49;5.00;85.20
68766;DHT22;55756;45.582;11.484;2022-12-07T17:49:20;5.00;85.30
68766;DHT22;55756;45.582;11.484;2022-12-07T17:51:46;5.00;85.50
68766;DHT22;55756;45.582;11.484;2022-12-07T17:54:30;5.00;85.40
68766;DHT22;55756;45.582;11.484;2022-12-07T17:56:56;4.90;85.50
68766;DHT22;55756;45.582;11.484;2022-12-07T17:59:23;4.90;85.50
68766;DHT22;55756;45.582;11.484;2022-12-07T18:01:49;4.90;85.50
68766;DHT22;55756;45.582;11.484;2022-12-07T18:04:15;4.80;85.70
68766;DHT22;55756;45.582;11.484;2022-12-07T18:06:41;4.80;85.70
68766;DHT22;55756;45.582;11.484;2022-12-07T18:09:07;4.70;85.70